Time;durP1;ratioP1;P1;durP2;ratioP2;P2;SDS_P1;SDS_P2;PMS_P1;PMS_P2;Temp;Humidity;BMP_temperature;BMP_pressure;BME280_temperature;BME280_humidity;BME280_pressure;Samples;Min_cycle;Max_cycle;Signal;HPM_P1;HPM_P2
2023/04/25 00:02:27;;;;;;;2.20;1.97;;;;;;;;;;5042092;28;20205;-33
2023/04/25 00:04:57;;;;;;;2.47;2.00;;;;;;;;;;5042122;28;20226;-33
2023/04/25 00:07:26;;;;;;;2.47;2.27;;;;;;;;;;5044293;28;20552;-30
2023/04/25 00:09:53;;;;;;;1.70;1.60;;;;;;;;;;5069662;28;20198;-34
2023/04/25 00:12:22;;;;;;;2.13;1.93;;;;;;;;;;5034083;28;20718;-30
2023/04/25 00:14:51;;;;;;;1.60;1.50;;;;;;;;;;5051855;28;20597;-33
2023/04/25 00:17:19;;;;;;;1.77;1.63;;;;;;;;;;5042306;28;20587;-32
2023/04/25 00:19:46;;;;;;;2.53;1.80;;;;;;;;;;5049621;28;20202;-33
2023/04/25 00:22:14;;;;;;;2.27;1.70;;;;;;;;;;5043451;28;20198;-34
2023/04/25 00:24:41;;;;;;;2.30;2.10;;;;;;;;;;5049911;28;20226;-32
2023/04/25 00:27:09;;;;;;;3.33;2.10;;;;;;;;;;5038910;28;20210;-32
2023/04/25 00:29:36;;;;;;;3.40;2.00;;;;;;;;;;5034046;28;20226;-36
2023/04/25 00:32:03;;;;;;;2.90;2.00;;;;;;;;;;5036197;28;20636;-36
2023/04/25 00:34:30;;;;;;;2.77;1.80;;;;;;;;;;5042977;28;20218;-31
2023/04/25 00:36:57;;;;;;;1.90;1.80;;;;;;;;;;5047443;28;20274;-31
2023/04/25 00:39:26;;;;;;;4.00;2.00;;;;;;;;;;5035200;28;20202;-33
2023/04/25 00:41:54;;;;;;;2.10;2.00;;;;;;;;;;5048178;28;20212;-30
2023/04/25 00:44:22;;;;;;;1.60;1.50;;;;;;;;;;5049771;28;20665;-35
2023/04/25 00:46:49;;;;;;;1.67;1.40;;;;;;;;;;5051160;28;20214;-34
2023/04/25 00:49:16;;;;;;;2.60;2.03;;;;;;;;;;5044054;28;20225;-31
2023/04/25 00:51:44;;;;;;;2.20;2.00;;;;;;;;;;5051357;28;20198;-32
2023/04/25 00:54:12;;;;;;;3.20;2.03;;;;;;;;;;5034176;28;20637;-34
2023/04/25 00:56:41;;;;;;;2.77;1.93;;;;;;;;;;5048759;28;20213;-33
2023/04/25 00:59:08;;;;;;;1.90;1.80;;;;;;;;;;5035837;28;20206;-35
2023/04/25 01:01:37;;;;;;;2.50;2.30;;;;;;;;;;5039176;28;20194;-35
2023/04/25 01:04:04;;;;;;;3.70;2.20;;;;;;;;;;5052395;28;20240;-36
2023/04/25 01:06:31;;;;;;;2.40;2.07;;;;;;;;;;5051019;28;20558;-34
2023/04/25 01:08:59;;;;;;;2.17;1.97;;;;;;;;;;5057750;28;20208;-34
2023/04/25 01:11:26;;;;;;;3.87;2.10;;;;;;;;;;5050973;28;20206;-33
2023/04/25 01:13:55;;;;;;;2.40;2.20;;;;;;;;;;5044857;28;20222;-36
2023/04/25 01:16:23;;;;;;;3.47;2.40;;;;;;;;;;5052812;28;20237;-32
2023/04/25 01:18:51;;;;;;;3.57;2.17;;;;;;;;;;5045168;28;20209;-34
2023/04/25 01:21:20;;;;;;;1.97;1.83;;;;;;;;;;5042458;28;20237;-36
2023/04/25 01:23:48;;;;;;;2.13;1.93;;;;;;;;;;5053627;28;20232;-33
2023/04/25 01:26:15;;;;;;;3.87;1.97;;;;;;;;;;5039652;28;20233;-32
2023/04/25 01:28:42;;;;;;;2.20;2.03;;;;;;;;;;5047926;28;20202;-34
2023/04/25 01:31:10;;;;;;;3.10;2.30;;;;;;;;;;5067125;28;20212;-29
2023/04/25 01:33:37;;;;;;;2.73;2.30;;;;;;;;;;5044169;28;20228;-33
2023/04/25 01:36:04;;;;;;;2.93;2.20;;;;;;;;;;5046499;28;20194;-34
2023/04/25 01:38:33;;;;;;;2.33;2.13;;;;;;;;;;5052725;28;20213;-32
2023/04/25 01:41:00;;;;;;;2.87;2.37;;;;;;;;;;5039402;28;20203;-30
2023/04/25 01:43:27;;;;;;;2.07;1.90;;;;;;;;;;5033029;28;20228;-32
2023/04/25 01:45:55;;;;;;;3.97;2.00;;;;;;;;;;5053117;28;20226;-31
2023/04/25 01:48:22;;;;;;;2.40;2.20;;;;;;;;;;5044581;28;20205;-34
2023/04/25 01:50:49;;;;;;;2.20;2.00;;;;;;;;;;5049479;28;20313;-33
2023/04/25 01:53:16;;;;;;;3.33;2.00;;;;;;;;;;5047273;28;20222;-33
2023/04/25 01:55:45;;;;;;;1.93;1.80;;;;;;;;;;5043494;28;20213;-34
2023/04/25 01:58:12;;;;;;;3.17;1.80;;;;;;;;;;5040895;28;20202;-33
2023/04/25 02:00:40;;;;;;;2.03;1.80;;;;;;;;;;5042248;28;20723;-37
2023/04/25 02:03:07;;;;;;;2.43;2.23;;;;;;;;;;5035774;28;20241;-34
2023/04/25 02:05:38;;;;;;;3.60;2.40;;;;;;;;;;5040843;28;20598;-32
2023/04/25 02:08:06;;;;;;;4.23;2.50;;;;;;;;;;5039376;28;20209;-35
2023/04/25 02:10:34;;;;;;;3.70;2.23;;;;;;;;;;5049289;28;20830;-32
2023/04/25 02:13:02;;;;;;;5.07;2.50;;;;;;;;;;5054391;28;20230;-36
2023/04/25 02:20:52;;;;;;;2.67;2.00;;;;;;;;;;5173487;23;20290;-29
2023/04/25 02:23:49;;;;;;;2.40;2.00;;;;;;;;;;5054162;28;20222;-31
2023/04/25 02:26:49;;;;;;;2.37;2.17;;;;;;;;;;5043538;28;20283;-27
2023/04/25 02:29:33;;;;;;;3.13;2.57;;;;;;;;;;5056687;28;20217;-31
2023/04/25 02:32:42;;;;;;;2.37;2.10;;;;;;;;;;5068943;28;20232;-30
2023/04/25 02:35:33;;;;;;;2.37;2.23;;;;;;;;;;5043448;28;20202;-31
2023/04/25 02:38:16;;;;;;;2.37;2.10;;;;;;;;;;5372115;23;20229;-35
2023/04/25 02:41:10;;;;;;;3.07;2.30;;;;;;;;;;5067656;28;20205;-37
2023/04/25 02:43:54;;;;;;;2.80;2.60;;;;;;;;;;5033030;28;20231;-36
2023/04/25 02:46:53;;;;;;;1.93;1.83;;;;;;;;;;5037270;28;20222;-37
2023/04/25 02:49:35;;;;;;;2.53;2.20;;;;;;;;;;5029717;28;20232;-34
2023/04/25 02:52:18;;;;;;;2.40;2.20;;;;;;;;;;5036220;28;20289;-37
2023/04/25 02:55:05;;;;;;;5.67;2.00;;;;;;;;;;5037268;28;20223;-40
2023/04/25 02:58:04;;;;;;;2.60;2.40;;;;;;;;;;5028974;28;20243;-39
2023/04/25 03:00:52;;;;;;;3.73;2.40;;;;;;;;;;5033782;28;20294;-40
2023/04/25 03:03:40;;;;;;;2.23;1.90;;;;;;;;;;5029161;28;20258;-39
2023/04/25 03:06:30;;;;;;;2.57;2.17;;;;;;;;;;5037441;28;20230;-41
2023/04/25 03:12:19;;;;;;;2.60;2.40;;;;;;;;;;5031118;28;20242;-41
2023/04/25 03:14:59;;;;;;;6.47;2.43;;;;;;;;;;5036536;28;20265;-39
2023/04/25 03:17:44;;;;;;;2.30;2.10;;;;;;;;;;5028832;28;20211;-33
2023/04/25 03:20:42;;;;;;;;;;;;;;;;;;;;;
2023/04/25 03:26:30;;;;;;;2.43;2.10;;;;;;;;;;5026796;28;20222;-39
2023/04/25 03:29:29;;;;;;;4.07;2.00;;;;;;;;;;5028840;28;20194;-42
2023/04/25 03:32:26;;;;;;;;;;;;;;;;;;;;;
2023/04/25 03:41:12;;;;;;;1.80;1.70;;;;;;;;;;5024954;28;20210;-33
2023/04/25 03:44:14;;;;;;;2.17;1.83;;;;;;;;;;5033785;28;20226;-36
2023/04/25 03:49:51;;;;;;;3.63;2.10;;;;;;;;;;5020357;28;20214;-38
2023/04/25 03:55:32;;;;;;;2.87;1.53;;;;;;;;;;5053703;28;20292;-38
2023/04/25 04:01:28;;;;;;;1.80;1.70;;;;;;;;;;5737380;23;20229;-38
2023/04/25 04:03:57;;;;;;;3.87;1.90;;;;;;;;;;5075095;28;20235;-30
2023/04/25 04:06:44;;;;;;;2.23;2.03;;;;;;;;;;5052995;28;20272;-30
2023/04/25 04:09:32;;;;;;;2.57;2.00;;;;;;;;;;5036187;28;20223;-30
2023/04/25 04:12:30;;;;;;;2.30;1.83;;;;;;;;;;5038519;28;20297;-27
2023/04/25 04:18:18;;;;;;;2.67;1.93;;;;;;;;;;5045086;28;20210;-29
2023/04/25 04:20:54;;;;;;;2.27;2.00;;;;;;;;;;5040861;28;20207;-30
2023/04/25 04:26:29;;;;;;;1.90;1.70;;;;;;;;;;5052096;28;20240;-28
2023/04/25 04:28:59;;;;;;;1.90;1.70;;;;;;;;;;5035634;28;20230;-26
2023/04/25 04:31:37;;;;;;;2.13;1.60;;;;;;;;;;5034781;28;20221;-27
2023/04/25 04:34:14;;;;;;;2.17;1.90;;;;;;;;;;5043824;28;20229;-29
2023/04/25 04:36:46;;;;;;;2.30;2.07;;;;;;;;;;5046968;28;20198;-29
2023/04/25 04:39:13;;;;;;;3.37;2.23;;;;;;;;;;5055439;28;20210;-26
2023/04/25 04:41:51;;;;;;;1.80;1.70;;;;;;;;;;5046586;28;20221;-29
2023/04/25 04:44:26;;;;;;;3.60;1.90;;;;;;;;;;5040395;28;20226;-26
2023/04/25 04:47:32;;;;;;;2.13;1.77;;;;;;;;;;5034433;28;20226;-27
2023/04/25 04:50:26;;;;;;;1.90;1.77;;;;;;;;;;5035416;28;20209;-30
2023/04/25 04:53:07;;;;;;;1.70;1.60;;;;;;;;;;5054842;28;20206;-27
2023/04/25 04:55:43;;;;;;;2.03;1.83;;;;;;;;;;5048310;28;20237;-30
2023/04/25 04:58:19;;;;;;;2.33;1.97;;;;;;;;;;5048675;28;20210;-28
2023/04/25 05:00:51;;;;;;;2.50;2.30;;;;;;;;;;5046506;28;20208;-27
2023/04/25 05:03:28;;;;;;;3.43;2.60;;;;;;;;;;5039304;28;20230;-28
2023/04/25 05:06:02;;;;;;;2.37;2.17;;;;;;;;;;5152221;22;20229;-27
2023/04/25 05:08:36;;;;;;;3.40;2.20;;;;;;;;;;5075336;28;20295;-27
2023/04/25 05:11:19;;;;;;;2.77;2.47;;;;;;;;;;5068973;28;20236;-28
2023/04/25 05:16:27;;;;;;;2.63;2.07;;;;;;;;;;5007087;28;20247;-26
2023/04/25 05:18:59;;;;;;;3.00;1.90;;;;;;;;;;5002697;28;20246;-30
2023/04/25 05:21:29;;;;;;;2.33;2.20;;;;;;;;;;5013719;28;20215;-26
2023/04/25 05:24:15;;;;;;;2.33;2.13;;;;;;;;;;4999496;28;20235;-27
2023/04/25 05:26:47;;;;;;;3.37;2.30;;;;;;;;;;4986171;28;20259;-30
2023/04/25 05:29:28;;;;;;;4.80;2.37;;;;;;;;;;4994826;28;20230;-27
2023/04/25 05:32:08;;;;;;;3.40;2.17;;;;;;;;;;4993668;28;20211;-29
2023/04/25 05:37:40;;;;;;;2.47;2.00;;;;;;;;;;5052751;28;20220;-28
2023/04/25 05:40:30;;;;;;;2.53;2.33;;;;;;;;;;5048978;28;20274;-28
2023/04/25 05:43:07;;;;;;;5.03;2.10;;;;;;;;;;5045568;28;20208;-28
2023/04/25 05:45:38;;;;;;;2.50;2.30;;;;;;;;;;5031077;28;20261;-27
2023/04/25 05:48:12;;;;;;;2.40;2.20;;;;;;;;;;5030912;28;20234;-29
2023/04/25 05:50:48;;;;;;;3.40;2.20;;;;;;;;;;5032932;28;20202;-30
2023/04/25 06:14:59;;;;;;;;;;;;;;;;;;;;;
2023/04/25 06:20:37;;;;;;;2.50;2.13;;;;;;;;;;5013096;28;20205;-37
2023/04/25 06:23:06;;;;;;;2.30;2.10;;;;;;;;;;5045611;28;20250;-41
2023/04/25 06:25:37;;;;;;;4.33;2.03;;;;;;;;;;5055259;28;20222;-36
2023/04/25 06:28:25;;;;;;;2.20;2.00;;;;;;;;;;5040159;28;20286;-34
2023/04/25 06:31:02;;;;;;;3.93;2.40;;;;;;;;;;5033135;28;20294;-38
2023/04/25 06:33:39;;;;;;;3.63;2.00;;;;;;;;;;5033957;28;20252;-35
2023/04/25 06:36:36;;;;;;;2.97;2.20;;;;;;;;;;5041660;28;20198;-38
2023/04/25 06:39:19;;;;;;;2.63;2.07;;;;;;;;;;5018581;28;20266;-38
2023/04/25 06:42:24;;;;;;;;;;;;;;;;;;;;;
2023/04/25 06:48:30;;;;;;;3.90;2.07;;;;;;;;;;5042898;28;20203;-32
2023/04/25 06:51:28;;;;;;;2.20;1.90;;;;;;;;;;5024450;28;20225;-35
2023/04/25 06:54:21;;;;;;;2.77;1.93;;;;;;;;;;5032693;28;20219;-39
2023/04/25 06:57:05;;;;;;;2.33;2.13;;;;;;;;;;5042663;28;20278;-35
2023/04/25 07:02:18;;;;;;;2.23;2.03;;;;;;;;;;5135921;22;20279;-37
2023/04/25 07:10:59;;;;;;;2.43;2.00;;;;;;;;;;5036184;28;20203;-37
2023/04/25 07:16:08;;;;;;;3.10;1.70;;;;;;;;;;5117614;22;20223;-27
2023/04/25 07:18:41;;;;;;;1.70;1.60;;;;;;;;;;5057822;28;20230;-27
2023/04/25 07:21:18;;;;;;;2.07;1.97;;;;;;;;;;5060104;28;20201;-27
2023/04/25 07:23:51;;;;;;;3.80;1.90;;;;;;;;;;5067637;28;20227;-30
2023/04/25 07:26:39;;;;;;;1.97;1.67;;;;;;;;;;5052573;28;20287;-29
2023/04/25 07:29:26;;;;;;;2.40;2.20;;;;;;;;;;5049915;28;20248;-29
2023/04/25 07:31:56;;;;;;;2.30;1.80;;;;;;;;;;5043919;28;20228;-27
2023/04/25 07:34:37;;;;;;;1.90;1.80;;;;;;;;;;5050347;28;20226;-27
2023/04/25 07:37:08;;;;;;;2.97;1.43;;;;;;;;;;5048269;28;20207;-29
2023/04/25 07:39:36;;;;;;;2.60;1.90;;;;;;;;;;5055480;28;20182;-28
2023/04/25 07:42:07;;;;;;;2.10;1.90;;;;;;;;;;5046619;28;20210;-30
2023/04/25 07:44:38;;;;;;;2.10;1.90;;;;;;;;;;5062956;28;20225;-31
2023/04/25 07:47:10;;;;;;;3.50;2.23;;;;;;;;;;5037422;28;20221;-26
2023/04/25 07:49:38;;;;;;;1.87;1.67;;;;;;;;;;5050930;28;20228;-30
2023/04/25 07:52:06;;;;;;;3.50;1.77;;;;;;;;;;5036312;28;20194;-28
2023/04/25 07:54:35;;;;;;;2.70;1.90;;;;;;;;;;5035310;28;20245;-31
2023/04/25 07:57:02;;;;;;;2.37;2.17;;;;;;;;;;5040949;28;20288;-27
2023/04/25 07:59:32;;;;;;;2.37;1.80;;;;;;;;;;5052364;28;20289;-27
2023/04/25 08:02:04;;;;;;;4.13;2.20;;;;;;;;;;5035059;28;20206;-29
2023/04/25 08:04:34;;;;;;;4.40;1.90;;;;;;;;;;5052407;28;20224;-29
2023/04/25 08:07:05;;;;;;;2.27;1.70;;;;;;;;;;5070800;28;20220;-28
2023/04/25 08:09:36;;;;;;;2.17;2.07;;;;;;;;;;5052178;28;20210;-25
2023/04/25 08:12:04;;;;;;;3.23;2.30;;;;;;;;;;5041229;28;20280;-27
2023/04/25 08:14:37;;;;;;;2.00;1.90;;;;;;;;;;5055033;28;20221;-29
2023/04/25 08:19:40;;;;;;;2.23;1.93;;;;;;;;;;5006140;28;20223;-34
2023/04/25 08:22:07;;;;;;;2.93;2.40;;;;;;;;;;5013281;28;20203;-33
2023/04/25 08:24:34;;;;;;;2.60;2.17;;;;;;;;;;5015228;28;20314;-32
2023/04/25 08:27:02;;;;;;;3.00;2.70;;;;;;;;;;5002552;28;20224;-31
2023/04/25 08:29:29;;;;;;;2.90;2.70;;;;;;;;;;5003673;28;20199;-33
2023/04/25 08:31:57;;;;;;;3.27;2.37;;;;;;;;;;5012059;28;20199;-33
2023/04/25 08:34:25;;;;;;;1.90;1.80;;;;;;;;;;5000479;28;20225;-33
2023/04/25 08:36:52;;;;;;;2.80;2.00;;;;;;;;;;5011726;28;20200;-31
2023/04/25 08:39:20;;;;;;;2.40;2.20;;;;;;;;;;5019547;28;20206;-32
2023/04/25 08:41:47;;;;;;;2.47;2.27;;;;;;;;;;5019201;28;20246;-30
2023/04/25 08:44:15;;;;;;;3.20;2.20;;;;;;;;;;5002433;28;20227;-34
2023/04/25 08:46:42;;;;;;;2.50;2.30;;;;;;;;;;5007530;28;20939;-32
2023/04/25 08:49:10;;;;;;;4.37;1.90;;;;;;;;;;5007735;28;20549;-32
2023/04/25 08:51:39;;;;;;;2.13;1.97;;;;;;;;;;5012812;28;20622;-34
2023/04/25 08:54:10;;;;;;;4.77;2.37;;;;;;;;;;4995179;28;20307;-30
2023/04/25 08:56:37;;;;;;;2.50;2.30;;;;;;;;;;5011120;28;20191;-34
2023/04/25 08:59:07;;;;;;;2.90;2.43;;;;;;;;;;5019855;28;20210;-32
2023/04/25 09:01:35;;;;;;;3.33;2.87;;;;;;;;;;5019525;28;20521;-34
2023/04/25 09:04:02;;;;;;;4.67;2.90;;;;;;;;;;5000348;28;20696;-29
2023/04/25 09:06:31;;;;;;;2.60;2.40;;;;;;;;;;5011627;28;20657;-34
2023/04/25 09:09:03;;;;;;;3.40;2.87;;;;;;;;;;5019319;28;20204;-35
2023/04/25 09:11:31;;;;;;;2.83;2.47;;;;;;;;;;5003399;28;20211;-33
2023/04/25 09:14:11;;;;;;;2.60;2.33;;;;;;;;;;4998567;28;20223;-31
2023/04/25 09:16:59;;;;;;;3.00;2.80;;;;;;;;;;5009434;28;20195;-33
2023/04/25 09:19:26;;;;;;;3.00;2.70;;;;;;;;;;5010646;28;20269;-32
2023/04/25 09:21:56;;;;;;;3.23;2.73;;;;;;;;;;5001804;28;20603;-34
2023/04/25 09:24:32;;;;;;;5.30;2.50;;;;;;;;;;5003130;28;20226;-34
2023/04/25 09:26:59;;;;;;;2.60;2.40;;;;;;;;;;5014407;28;20210;-32
2023/04/25 09:29:30;;;;;;;4.13;2.40;;;;;;;;;;5021069;28;20210;-32
2023/04/25 09:32:12;;;;;;;2.97;2.60;;;;;;;;;;5004819;28;20253;-34
2023/04/25 09:34:40;;;;;;;2.70;2.33;;;;;;;;;;4997877;28;20897;-30
2023/04/25 09:37:09;;;;;;;4.23;2.13;;;;;;;;;;5013570;28;20249;-34
2023/04/25 09:39:37;;;;;;;3.33;2.20;;;;;;;;;;5024935;28;20203;-32
2023/04/25 09:42:04;;;;;;;2.37;2.17;;;;;;;;;;5004771;28;20286;-33
2023/04/25 09:44:32;;;;;;;6.13;2.70;;;;;;;;;;5012804;28;20546;-32
2023/04/25 09:46:59;;;;;;;2.77;2.57;;;;;;;;;;5004760;28;20233;-32
2023/04/25 09:49:27;;;;;;;3.03;2.73;;;;;;;;;;5008874;28;20210;-33
2023/04/25 09:51:57;;;;;;;3.30;2.77;;;;;;;;;;5012672;28;20208;-30
2023/04/25 09:54:26;;;;;;;3.27;2.80;;;;;;;;;;5013673;28;20234;-29
2023/04/25 09:56:54;;;;;;;2.97;2.67;;;;;;;;;;5006661;28;20202;-31
2023/04/25 09:59:22;;;;;;;3.23;2.93;;;;;;;;;;5008965;28;20549;-33
2023/04/25 10:01:50;;;;;;;3.97;2.50;;;;;;;;;;5009449;28;20247;-33
2023/04/25 10:04:20;;;;;;;3.20;2.90;;;;;;;;;;4994136;28;20223;-32
2023/04/25 10:06:50;;;;;;;3.30;2.30;;;;;;;;;;5010608;28;20573;-34
2023/04/25 10:09:18;;;;;;;5.03;3.40;;;;;;;;;;5023868;28;20222;-30
2023/04/25 10:11:47;;;;;;;3.27;3.00;;;;;;;;;;5004569;28;20231;-32
2023/04/25 10:14:15;;;;;;;2.93;2.60;;;;;;;;;;5010541;28;20217;-34
2023/04/25 10:17:01;;;;;;;3.13;2.17;;;;;;;;;;5004486;28;20195;-34
2023/04/25 10:19:29;;;;;;;4.00;2.27;;;;;;;;;;4998619;28;20242;-31
2023/04/25 10:22:11;;;;;;;2.80;1.83;;;;;;;;;;5005001;28;20203;-32
2023/04/25 10:24:39;;;;;;;8.70;6.83;;;;;;;;;;5010906;28;20239;-33
2023/04/25 10:27:08;;;;;;;4.53;2.90;;;;;;;;;;5007157;28;20443;-34
2023/04/25 10:29:36;;;;;;;4.27;3.27;;;;;;;;;;5009429;28;20213;-30
2023/04/25 10:32:04;;;;;;;3.30;3.00;;;;;;;;;;5003646;28;20216;-32
2023/04/25 10:34:41;;;;;;;3.30;3.00;;;;;;;;;;4991449;28;20278;-31
2023/04/25 10:37:10;;;;;;;5.17;3.07;;;;;;;;;;5009563;28;20191;-29
2023/04/25 10:39:39;;;;;;;4.00;3.23;;;;;;;;;;5018483;28;20191;-31
2023/04/25 10:42:08;;;;;;;3.40;3.10;;;;;;;;;;5000262;28;20235;-30
2023/04/25 10:44:36;;;;;;;2.83;2.60;;;;;;;;;;5011624;28;20235;-33
2023/04/25 10:47:05;;;;;;;2.83;2.60;;;;;;;;;;5007285;28;20219;-35
2023/04/25 10:49:33;;;;;;;5.57;2.97;;;;;;;;;;5005412;28;20701;-31
2023/04/25 10:52:13;;;;;;;3.57;2.53;;;;;;;;;;5015928;28;20201;-32
2023/04/25 10:54:42;;;;;;;3.63;2.73;;;;;;;;;;5015234;28;20680;-30
2023/04/25 10:57:28;;;;;;;3.17;2.87;;;;;;;;;;5009945;28;20212;-30
2023/04/25 11:00:10;;;;;;;3.57;2.90;;;;;;;;;;5008480;28;20265;-33
2023/04/25 11:02:45;;;;;;;4.77;2.10;;;;;;;;;;5008761;28;20892;-34
2023/04/25 11:05:12;;;;;;;2.80;2.60;;;;;;;;;;5006735;28;20202;-34
2023/04/25 11:07:40;;;;;;;3.37;2.80;;;;;;;;;;5014428;28;20227;-35
2023/04/25 11:10:08;;;;;;;3.27;2.23;;;;;;;;;;5013033;28;20638;-35
2023/04/25 11:12:37;;;;;;;3.07;2.13;;;;;;;;;;5011613;28;20298;-33
2023/04/25 11:15:04;;;;;;;1.87;1.70;;;;;;;;;;5013776;28;20222;-32
2023/04/25 11:17:31;;;;;;;2.73;1.93;;;;;;;;;;5013235;28;20218;-34
2023/04/25 11:19:59;;;;;;;2.57;1.90;;;;;;;;;;4999126;28;20218;-34
2023/04/25 11:22:26;;;;;;;3.23;3.03;;;;;;;;;;5015919;28;20202;-34
2023/04/25 11:24:53;;;;;;;9.33;8.67;;;;;;;;;;5011515;28;20224;-33
2023/04/25 11:27:20;;;;;;;6.40;6.00;;;;;;;;;;5003875;28;20576;-34
2023/04/25 11:29:49;;;;;;;9.90;9.20;;;;;;;;;;5014913;28;20660;-34
2023/04/25 11:32:17;;;;;;;13.10;12.13;;;;;;;;;;5009628;28;20265;-34
2023/04/25 11:34:45;;;;;;;11.20;10.37;;;;;;;;;;5005674;28;20227;-30
2023/04/25 11:37:13;;;;;;;20.03;18.60;;;;;;;;;;5013622;28;20587;-32
2023/04/25 11:39:44;;;;;;;7.37;6.87;;;;;;;;;;5011590;28;20637;-30
2023/04/25 11:42:11;;;;;;;9.50;8.77;;;;;;;;;;5000444;28;20211;-33
2023/04/25 11:44:40;;;;;;;11.90;11.03;;;;;;;;;;5012782;28;20573;-33
2023/04/25 11:47:08;;;;;;;2.97;2.77;;;;;;;;;;5004692;28;20212;-35
2023/04/25 11:49:36;;;;;;;5.97;5.60;;;;;;;;;;4999940;28;20251;-32
2023/04/25 11:52:04;;;;;;;4.27;3.97;;;;;;;;;;5011192;28;20292;-30
2023/04/25 11:54:31;;;;;;;4.27;3.97;;;;;;;;;;5018596;28;20230;-33
2023/04/25 11:56:58;;;;;;;7.23;2.23;;;;;;;;;;5023290;28;20581;-33
2023/04/25 11:59:27;;;;;;;2.80;2.60;;;;;;;;;;5008372;28;20394;-33
2023/04/25 12:01:55;;;;;;;4.43;4.13;;;;;;;;;;5000802;28;20210;-33
2023/04/25 12:04:24;;;;;;;2.53;2.40;;;;;;;;;;5004637;28;20322;-34
2023/04/25 12:06:52;;;;;;;2.83;2.67;;;;;;;;;;5011767;28;20199;-30
2023/04/25 12:09:21;;;;;;;3.40;3.20;;;;;;;;;;5008370;28;20267;-33
2023/04/25 12:11:49;;;;;;;3.33;3.17;;;;;;;;;;5007589;28;20240;-30
2023/04/25 12:14:22;;;;;;;2.50;2.40;;;;;;;;;;5009602;28;20219;-32
2023/04/25 12:16:51;;;;;;;1.30;1.30;;;;;;;;;;5024212;28;20252;-31
2023/04/25 12:19:18;;;;;;;1.73;1.47;;;;;;;;;;4997677;28;20211;-33
2023/04/25 12:21:47;;;;;;;1.90;1.80;;;;;;;;;;5010946;28;20203;-35
2023/04/25 12:24:15;;;;;;;1.30;1.30;;;;;;;;;;5020006;28;20234;-35
2023/04/25 12:27:00;;;;;;;0.90;0.90;;;;;;;;;;4997447;28;20199;-34
2023/04/25 12:29:28;;;;;;;1.27;1.17;;;;;;;;;;5008943;28;20202;-30
2023/04/25 12:31:56;;;;;;;1.63;1.53;;;;;;;;;;5008656;28;20322;-34
2023/04/25 12:34:24;;;;;;;1.00;1.00;;;;;;;;;;5009304;28;20219;-31
2023/04/25 12:36:53;;;;;;;1.70;1.60;;;;;;;;;;5012818;28;20197;-30
2023/04/25 12:39:22;;;;;;;1.50;1.40;;;;;;;;;;5012990;28;20234;-35
2023/04/25 12:41:49;;;;;;;1.93;1.23;;;;;;;;;;5005642;28;20211;-35
2023/04/25 12:44:16;;;;;;;1.20;1.20;;;;;;;;;;5011391;28;20219;-32
2023/04/25 12:46:44;;;;;;;1.17;1.17;;;;;;;;;;5010275;28;20305;-31
2023/04/25 12:49:12;;;;;;;0.83;0.83;;;;;;;;;;5011903;28;20560;-34
2023/04/25 12:51:39;;;;;;;1.07;0.97;;;;;;;;;;5014037;28;20527;-32
2023/04/25 12:54:08;;;;;;;0.77;0.77;;;;;;;;;;5015009;28;20223;-33
2023/04/25 12:56:35;;;;;;;1.23;1.23;;;;;;;;;;5010312;28;20200;-33
2023/04/25 12:59:03;;;;;;;1.37;1.27;;;;;;;;;;5005041;28;20195;-32
2023/04/25 13:01:30;;;;;;;0.90;0.90;;;;;;;;;;5012212;28;20203;-34
2023/04/25 13:03:57;;;;;;;1.53;1.00;;;;;;;;;;5001791;28;20688;-34
2023/04/25 13:06:26;;;;;;;1.90;1.27;;;;;;;;;;5009702;28;20195;-32
2023/04/25 13:08:54;;;;;;;1.33;1.23;;;;;;;;;;5011826;28;20215;-32
2023/04/25 13:11:22;;;;;;;1.10;1.00;;;;;;;;;;5006219;28;20691;-35
2023/04/25 13:13:49;;;;;;;1.40;1.30;;;;;;;;;;5007702;28;20235;-31
2023/04/25 13:16:17;;;;;;;1.27;1.20;;;;;;;;;;5012151;28;20203;-34
2023/04/25 13:18:44;;;;;;;1.47;1.37;;;;;;;;;;4993035;28;20233;-31
2023/04/25 13:21:12;;;;;;;1.20;1.20;;;;;;;;;;5005876;28;20217;-35
2023/04/25 13:23:40;;;;;;;1.40;1.30;;;;;;;;;;4997808;28;20224;-32
2023/04/25 13:26:07;;;;;;;1.80;1.70;;;;;;;;;;5011184;28;20203;-32
2023/04/25 13:28:36;;;;;;;2.93;1.60;;;;;;;;;;5011735;28;20223;-33
2023/04/25 13:31:03;;;;;;;1.77;1.67;;;;;;;;;;5013918;28;20234;-32
2023/04/25 13:33:30;;;;;;;2.43;2.07;;;;;;;;;;5002381;28;20562;-34
2023/04/25 13:35:58;;;;;;;2.43;2.00;;;;;;;;;;5011593;28;20253;-35
2023/04/25 13:38:26;;;;;;;2.97;2.60;;;;;;;;;;5011141;28;20203;-30
2023/04/25 13:40:53;;;;;;;2.70;2.20;;;;;;;;;;5008284;28;20459;-30
2023/04/25 13:43:21;;;;;;;4.03;2.20;;;;;;;;;;5004215;28;20229;-35
2023/04/25 13:45:51;;;;;;;3.20;1.80;;;;;;;;;;5027007;28;20234;-32
2023/04/25 13:48:18;;;;;;;2.37;2.17;;;;;;;;;;5001470;28;20577;-33
2023/04/25 13:50:46;;;;;;;2.67;2.47;;;;;;;;;;5003318;28;20302;-32
2023/04/25 13:53:13;;;;;;;2.40;2.20;;;;;;;;;;5009681;28;20220;-31
2023/04/25 13:55:40;;;;;;;3.77;2.23;;;;;;;;;;5016168;28;20195;-32
2023/04/25 13:58:09;;;;;;;3.10;2.43;;;;;;;;;;5006828;28;20200;-33
2023/04/25 14:00:38;;;;;;;2.80;2.60;;;;;;;;;;5011039;28;20196;-34
2023/04/25 14:03:07;;;;;;;2.83;2.60;;;;;;;;;;5001540;28;20225;-33
2023/04/25 14:05:37;;;;;;;2.53;2.30;;;;;;;;;;5003978;28;20512;-33
2023/04/25 14:08:05;;;;;;;2.97;2.77;;;;;;;;;;5017551;28;20481;-34
2023/04/25 14:10:33;;;;;;;3.07;2.50;;;;;;;;;;5011176;28;20204;-32
2023/04/25 14:13:00;;;;;;;2.80;2.50;;;;;;;;;;5000586;28;20204;-30
2023/04/25 14:15:27;;;;;;;4.03;2.73;;;;;;;;;;5007049;28;20196;-35
2023/04/25 14:17:54;;;;;;;4.17;2.80;;;;;;;;;;5000613;28;20207;-33
2023/04/25 14:26:28;;;;;;;4.63;3.27;;;;;;;;;;5049388;28;20249;-29
2023/04/25 14:43:16;;;;;;;4.63;3.53;;;;;;;;;;5147327;27;20537;-29
2023/04/25 14:46:00;;;;;;;3.80;3.40;;;;;;;;;;5122631;27;20229;-30
2023/04/25 14:48:32;;;;;;;4.03;3.63;;;;;;;;;;5143758;27;20200;-26
2023/04/25 14:51:22;;;;;;;3.50;3.20;;;;;;;;;;5124461;28;20199;-27
2023/04/25 14:56:56;;;;;;;4.90;3.63;;;;;;;;;;5134588;27;20222;-29
2023/04/25 14:59:44;;;;;;;3.83;3.53;;;;;;;;;;5132388;28;20253;-28
2023/04/25 15:02:18;;;;;;;3.33;3.03;;;;;;;;;;5125414;27;20223;-26
2023/04/25 15:05:01;;;;;;;4.73;3.30;;;;;;;;;;5119037;22;20237;-30
2023/04/25 15:07:43;;;;;;;4.37;3.53;;;;;;;;;;5083342;28;20268;-28
2023/04/25 15:10:20;;;;;;;3.33;3.03;;;;;;;;;;5091011;28;20247;-28
2023/04/25 15:15:55;;;;;;;3.77;2.97;;;;;;;;;;5324891;22;20330;-27
2023/04/25 15:21:25;;;;;;;4.87;3.47;;;;;;;;;;5108362;28;20216;-27
2023/04/25 15:24:16;;;;;;;3.40;3.10;;;;;;;;;;5110579;28;20244;-31
2023/04/25 15:29:33;;;;;;;4.93;4.13;;;;;;;;;;5186656;22;20237;-28
2023/04/25 15:32:25;;;;;;;4.30;3.90;;;;;;;;;;5090054;28;20249;-29
2023/04/25 15:35:02;;;;;;;5.73;3.80;;;;;;;;;;5079558;28;20234;-26
2023/04/25 15:37:45;;;;;;;4.43;3.60;;;;;;;;;;5094134;28;20204;-30
2023/04/25 15:40:29;;;;;;;5.50;4.10;;;;;;;;;;5084236;28;20281;-28
2023/04/25 15:43:16;;;;;;;5.10;4.57;;;;;;;;;;5139873;22;20193;-27
2023/04/25 15:45:54;;;;;;;6.20;4.00;;;;;;;;;;5735211;22;20196;-27
2023/04/25 15:49:11;;;;;;;4.10;3.70;;;;;;;;;;5080150;28;20209;-27
2023/04/25 15:52:09;;;;;;;5.07;4.33;;;;;;;;;;5103394;28;20265;-29
2023/04/25 15:55:03;;;;;;;5.30;4.03;;;;;;;;;;5064099;28;20222;-29
2023/04/25 15:57:50;;;;;;;4.13;3.57;;;;;;;;;;5052461;28;20209;-27
2023/04/25 16:00:34;;;;;;;5.00;3.77;;;;;;;;;;5074875;28;20216;-27
2023/04/25 16:03:18;;;;;;;7.13;3.90;;;;;;;;;;5059050;28;20263;-27
2023/04/25 16:05:58;;;;;;;7.87;5.50;;;;;;;;;;5065796;28;20218;-28
2023/04/25 16:08:28;;;;;;;6.40;5.40;;;;;;;;;;5051641;28;20199;-27
2023/04/25 16:11:28;;;;;;;5.37;4.50;;;;;;;;;;5058867;28;20201;-30
2023/04/25 16:14:11;;;;;;;7.47;4.67;;;;;;;;;;5095624;22;20231;-29
2023/04/25 16:16:58;;;;;;;5.70;3.93;;;;;;;;;;5087312;28;20213;-26
2023/04/25 16:19:41;;;;;;;5.60;3.73;;;;;;;;;;5085564;28;20270;-26
2023/04/25 16:22:21;;;;;;;4.30;3.90;;;;;;;;;;5095176;28;20247;-27
2023/04/25 16:25:28;;;;;;;4.50;4.03;;;;;;;;;;5080384;28;20225;-28
2023/04/25 16:28:15;;;;;;;6.03;4.70;;;;;;;;;;5083278;28;20208;-28
2023/04/25 16:30:56;;;;;;;5.07;4.10;;;;;;;;;;5078270;28;20205;-30
2023/04/25 16:33:34;;;;;;;4.97;4.13;;;;;;;;;;5087593;22;20228;-25
2023/04/25 16:36:15;;;;;;;5.30;4.47;;;;;;;;;;5088256;28;20204;-29
2023/04/25 16:41:43;;;;;;;8.23;6.57;;;;;;;;;;5093956;28;20232;-25
2023/04/25 16:44:19;;;;;;;4.90;4.40;;;;;;;;;;5085734;28;20236;-26
2023/04/25 16:46:51;;;;;;;5.60;4.80;;;;;;;;;;5093298;28;20250;-27
2023/04/25 16:49:40;;;;;;;5.40;4.77;;;;;;;;;;5086020;28;20205;-26
2023/04/25 16:52:14;;;;;;;6.30;4.50;;;;;;;;;;5267752;22;20221;-29
2023/04/25 16:55:00;;;;;;;5.47;4.67;;;;;;;;;;5069295;28;20746;-26
2023/04/25 16:57:45;;;;;;;7.27;6.23;;;;;;;;;;5054928;28;20210;-31
2023/04/25 17:03:21;;;;;;;5.03;4.27;;;;;;;;;;5085812;28;20312;-28
2023/04/25 17:06:00;;;;;;;7.03;5.07;;;;;;;;;;5074038;28;20209;-29
2023/04/25 17:08:37;;;;;;;5.37;4.47;;;;;;;;;;5075132;28;20231;-29
2023/04/25 17:16:46;;;;;;;7.07;4.83;;;;;;;;;;5077874;28;20209;-29
2023/04/25 17:19:22;;;;;;;4.30;3.90;;;;;;;;;;5068911;28;20205;-27
2023/04/25 17:22:09;;;;;;;4.60;4.00;;;;;;;;;;5057376;28;20301;-27
2023/04/25 17:24:49;;;;;;;5.17;3.97;;;;;;;;;;5070881;28;20229;-26
2023/04/25 17:27:22;;;;;;;4.07;3.43;;;;;;;;;;5053293;28;20233;-28
2023/04/25 17:30:02;;;;;;;3.13;2.83;;;;;;;;;;5074176;28;20216;-29
2023/04/25 17:35:22;;;;;;;3.60;3.30;;;;;;;;;;5072785;22;20233;-30